KLPR

Lorain County Regional Airport

Lorain/Elyria, Ohio, USA
METAR KLPR 141653Z AUTO VRB05KT 10SM OVC110 09/01 A3017 RMK AO2 SLP222 T00940011
Observed Flight Rules
Dec-14 @ 16:53 UTC (52 minutes ago) Visual Flight Rules
Wind Visibility Clouds
Variable at 5 knots 10 miles
  • Overcast at 11,000' AGL
Temperatures Readings
Current 9°C / 48°F
Dewpoint 1°C / 34°F
Humidity 58%
Altimeter 30.17" Hg
Pressure 1022.2 hPa
Elevation 241
METAR KLPR 141653Z AUTO VRB05KT 10SM OVC110 09/01 A3017 RMK AO2 SLP222 T00940011
Observed Flight Rules
Dec-14 @ 16:53 UTC
(52 minutes ago)
VFR
Wind Visibility
Variable at 5 knots 10 miles
Clouds
  • Overcast at 11,000' AGL
Temperature Dewpoint
9°C / 48°F 1°C / 34°F
Humidity Altimeter Pressure
58% 30.17" Hg 1022.2 hPa